Time;durP1;ratioP1;P1;durP2;ratioP2;P2;SDS_P1;SDS_P2;PMS_P1;PMS_P2;Temp;Humidity;BMP_temperature;BMP_pressure;BME280_temperature;BME280_humidity;BME280_pressure;Samples;Min_cycle;Max_cycle;Signal;HPM_P1;HPM_P2
2023/07/12 06:25:31;;;;;;;;;;;15.70;71.80;;;;;;6303450;22;19926;-75
2023/07/12 06:27:57;;;;;;;;;;;15.70;71.90;;;;;;6276756;22;20295;-77
2023/07/12 06:30:24;;;;;;;;;;;15.70;71.90;;;;;;6306486;22;19953;-78
2023/07/12 06:32:51;;;;;;;;;;;15.70;72.00;;;;;;6303582;22;19907;-78
2023/07/12 06:35:18;;;;;;;;;;;15.70;71.90;;;;;;6302573;22;19907;-76
2023/07/12 06:37:44;;;;;;;;;;;15.60;72.00;;;;;;6300972;22;19914;-75
2023/07/12 06:40:11;;;;;;;;;;;15.60;72.00;;;;;;6274827;22;19915;-77
2023/07/12 06:42:38;;;;;;;;;;;15.60;72.20;;;;;;6275832;22;19910;-74
2023/07/12 06:45:05;;;;;;;;;;;15.60;72.40;;;;;;6303053;22;19903;-77
2023/07/12 06:47:32;;;;;;;;;;;15.50;72.70;;;;;;6302455;22;19907;-75
2023/07/12 06:49:59;;;;;;;;;;;15.50;73.10;;;;;;6302368;22;20245;-75
2023/07/12 06:52:25;;;;;;;;;;;15.40;73.20;;;;;;6301377;22;19907;-76
2023/07/12 06:54:52;;;;;;;;;;;15.40;73.80;;;;;;6302839;22;19964;-76
2023/07/12 06:57:19;;;;;;;;;;;15.30;74.20;;;;;;6302918;22;19934;-77
2023/07/12 06:59:46;;;;;;;;;;;15.30;74.90;;;;;;6273338;22;19922;-76
2023/07/12 07:02:14;;;;;;;;;;;15.30;74.90;;;;;;6302978;22;19903;-77
2023/07/12 07:04:41;;;;;;;;;;;15.20;75.20;;;;;;6303643;22;20292;-76
2023/07/12 07:07:07;;;;;;;;;;;15.20;75.60;;;;;;6303272;22;20344;-77
2023/07/12 07:09:36;;;;;;;;;;;15.20;75.80;;;;;;6303375;22;19985;-77
2023/07/12 07:12:02;;;;;;;;;;;15.20;76.20;;;;;;6301811;22;20300;-76
2023/07/12 07:14:29;;;;;;;;;;;15.20;76.50;;;;;;6302935;22;19934;-76
2023/07/12 07:16:56;;;;;;;;;;;15.10;76.70;;;;;;6303205;22;19945;-76
2023/07/12 07:19:23;;;;;;;;;;;15.10;77.00;;;;;;6275784;22;19922;-76
2023/07/12 07:21:50;;;;;;;;;;;15.00;77.30;;;;;;6304819;22;19911;-76
2023/07/12 07:24:17;;;;;;;;;;;15.00;77.50;;;;;;6305097;22;19915;-76
2023/07/12 07:26:44;;;;;;;;;;;15.00;77.90;;;;;;6304400;22;19910;-77
2023/07/12 07:29:11;;;;;;;;;;;15.00;78.00;;;;;;6304511;22;19929;-73
2023/07/12 07:31:37;;;;;;;;;;;15.00;78.10;;;;;;6304722;22;19906;-72
2023/07/12 07:34:04;;;;;;;;;;;14.90;78.30;;;;;;6304437;22;19911;-72
2023/07/12 07:36:31;;;;;;;;;;;14.90;78.50;;;;;;6277190;22;20342;-72
2023/07/12 07:38:58;;;;;;;;;;;14.80;78.60;;;;;;6303760;22;19942;-72
2023/07/12 07:41:24;;;;;;;;;;;14.80;78.80;;;;;;6276749;22;20298;-74
2023/07/12 07:43:51;;;;;;;;;;;14.80;79.00;;;;;;6305035;22;19949;-74
2023/07/12 07:46:18;;;;;;;;;;;14.80;79.20;;;;;;6276538;22;19943;-75
2023/07/12 07:48:45;;;;;;;;;;;14.80;79.20;;;;;;6305031;22;20321;-77
2023/07/12 07:51:12;;;;;;;;;;;14.70;79.50;;;;;;6304818;22;20246;-79
2023/07/12 07:53:39;;;;;;;;;;;14.70;79.60;;;;;;6305797;22;20229;-80
2023/07/12 07:56:06;;;;;;;;;;;14.70;79.70;;;;;;6305780;22;19956;-82
2023/07/12 07:58:32;;;;;;;;;;;14.70;79.90;;;;;;6304134;22;19945;-83
2023/07/12 08:00:59;;;;;;;;;;;14.70;80.00;;;;;;6301361;22;19915;-76
2023/07/12 08:03:26;;;;;;;;;;;14.70;80.00;;;;;;6304091;22;20326;-76
2023/07/12 08:05:52;;;;;;;;;;;14.60;80.20;;;;;;6305122;22;19919;-76
2023/07/12 08:08:20;;;;;;;;;;;14.60;80.40;;;;;;6250861;22;20319;-74
2023/07/12 08:10:47;;;;;;;;;;;14.60;80.50;;;;;;6303821;22;19917;-72
2023/07/12 08:13:14;;;;;;;;;;;14.60;80.60;;;;;;6302775;22;19935;-73
2023/07/12 08:15:41;;;;;;;;;;;14.60;80.70;;;;;;6302283;22;19918;-73
2023/07/12 08:18:10;;;;;;;;;;;14.60;80.90;;;;;;6303778;22;19934;-72
2023/07/12 12:50:00;;;;;;;;;;;13.50;84.30;;;;;;6300582;22;19942;-74
2023/07/12 12:52:27;;;;;;;;;;;13.50;84.50;;;;;;6249257;22;19907;-75
2023/07/12 12:54:59;;;;;;;;;;;13.50;84.50;;;;;;6248940;22;19979;-75
2023/07/12 12:57:27;;;;;;;;;;;13.50;84.50;;;;;;6275468;22;19914;-75
2023/07/12 12:59:53;;;;;;;;;;;13.40;84.60;;;;;;6248902;22;19918;-75
2023/07/12 13:02:20;;;;;;;;;;;13.40;84.50;;;;;;6275780;22;19907;-75
2023/07/12 13:04:47;;;;;;;;;;;13.40;84.60;;;;;;6248743;22;19907;-74
2023/07/12 13:07:24;;;;;;;;;;;13.40;84.70;;;;;;6276231;22;20315;-75
2023/07/12 13:09:51;;;;;;;;;;;13.30;84.70;;;;;;6249062;22;19903;-75
2023/07/12 13:12:21;;;;;;;;;;;13.30;84.80;;;;;;6275937;22;19925;-75
2023/07/12 13:14:48;;;;;;;;;;;13.30;84.90;;;;;;6249162;22;19983;-74
2023/07/12 13:17:15;;;;;;;;;;;13.30;85.00;;;;;;6275273;22;19903;-75
2023/07/12 13:19:42;;;;;;;;;;;13.20;85.20;;;;;;6249164;22;19922;-75
2023/07/12 13:22:11;;;;;;;;;;;13.20;85.30;;;;;;6249222;22;19908;-75
2023/07/12 13:24:38;;;;;;;;;;;13.20;85.30;;;;;;6248054;22;19958;-75
2023/07/12 13:27:07;;;;;;;;;;;13.20;85.40;;;;;;6276145;22;20231;-75
2023/07/12 13:29:34;;;;;;;;;;;13.20;85.40;;;;;;6248963;22;20299;-74
2023/07/12 13:32:00;;;;;;;;;;;13.20;85.40;;;;;;6276219;22;19911;-75
2023/07/12 13:34:27;;;;;;;;;;;13.20;85.40;;;;;;6275806;22;19914;-74
2023/07/12 13:36:54;;;;;;;;;;;13.10;85.40;;;;;;6275313;22;20223;-75
2023/07/12 13:39:23;;;;;;;;;;;13.10;85.50;;;;;;6275466;22;19910;-75
2023/07/12 13:41:49;;;;;;;;;;;13.10;85.60;;;;;;6275543;22;19965;-75
2023/07/12 13:44:16;;;;;;;;;;;13.00;85.60;;;;;;6275861;22;20388;-75
2023/07/12 13:46:43;;;;;;;;;;;13.00;85.70;;;;;;6274931;22;19965;-76
2023/07/12 13:49:12;;;;;;;;;;;13.00;85.70;;;;;;6275709;22;19915;-75
2023/07/12 13:51:39;;;;;;;;;;;12.90;85.70;;;;;;6275127;22;19914;-73
2023/07/12 13:54:06;;;;;;;;;;;12.90;85.60;;;;;;6275956;22;20242;-74
2023/07/12 13:56:32;;;;;;;;;;;12.90;85.80;;;;;;6275683;22;19978;-74
2023/07/12 13:58:59;;;;;;;;;;;12.80;85.70;;;;;;6275662;22;19934;-74
2023/07/12 14:01:26;;;;;;;;;;;12.80;85.70;;;;;;6275609;22;19917;-74
2023/07/12 14:03:53;;;;;;;;;;;12.80;85.70;;;;;;6248960;22;20351;-74
2023/07/12 14:06:21;;;;;;;;;;;12.70;85.90;;;;;;6274966;22;20149;-73
2023/07/12 14:08:50;;;;;;;;;;;12.70;86.00;;;;;;6275074;22;19904;-74
2023/07/12 14:11:27;;;;;;;;;;;12.70;85.90;;;;;;6275300;22;19907;-73
2023/07/12 14:13:54;;;;;;;;;;;12.60;86.00;;;;;;6275743;22;19911;-74
2023/07/12 14:16:21;;;;;;;;;;;12.60;86.20;;;;;;6275530;22;19904;-73
2023/07/12 14:18:47;;;;;;;;;;;12.60;86.20;;;;;;6275878;22;19903;-74
2023/07/12 14:21:14;;;;;;;;;;;12.60;85.90;;;;;;6275714;22;19911;-73
2023/07/12 14:23:43;;;;;;;;;;;12.60;85.90;;;;;;6278823;22;19910;-74
2023/07/12 14:26:29;;;;;;;;;;;12.50;85.90;;;;;;6305683;22;19910;-73
2023/07/12 14:28:56;;;;;;;;;;;12.50;86.20;;;;;;6306815;22;20396;-73
2023/07/12 14:31:23;;;;;;;;;;;12.40;86.30;;;;;;6308368;22;19978;-74
2023/07/12 14:33:50;;;;;;;;;;;12.50;86.50;;;;;;6281733;22;19972;-73
2023/07/12 14:36:18;;;;;;;;;;;12.50;86.50;;;;;;6281212;22;19911;-74
2023/07/12 14:38:45;;;;;;;;;;;12.50;86.30;;;;;;6309140;22;20349;-74
2023/07/12 14:41:21;;;;;;;;;;;12.50;86.40;;;;;;6308782;22;19915;-74
2023/07/12 14:43:48;;;;;;;;;;;12.50;86.30;;;;;;6281286;22;19914;-74
2023/07/12 14:46:15;;;;;;;;;;;12.40;86.30;;;;;;6307135;22;19910;-73
2023/07/12 14:48:42;;;;;;;;;;;12.40;86.40;;;;;;6308260;22;19903;-73
2023/07/12 14:51:34;;;;;;;;;;;12.40;86.50;;;;;;6308484;22;19907;-73
2023/07/12 14:54:06;;;;;;;;;;;12.30;86.40;;;;;;6301129;22;19938;-74
2023/07/12 14:56:33;;;;;;;;;;;12.20;86.50;;;;;;6308490;22;19914;-74
2023/07/12 14:59:00;;;;;;;;;;;12.20;86.50;;;;;;6309010;22;20211;-74
2023/07/12 15:01:27;;;;;;;;;;;12.30;86.40;;;;;;6308551;22;19919;-73
2023/07/12 15:03:54;;;;;;;;;;;12.30;86.60;;;;;;6281352;22;19952;-74
2023/07/12 15:06:24;;;;;;;;;;;12.20;86.60;;;;;;6281239;22;20009;-74
2023/07/12 15:08:50;;;;;;;;;;;12.30;86.50;;;;;;6281388;22;20266;-74
2023/07/12 15:11:19;;;;;;;;;;;12.30;86.50;;;;;;6308548;22;19914;-74
2023/07/12 15:13:46;;;;;;;;;;;12.30;86.70;;;;;;6308431;22;19938;-74
2023/07/12 15:16:16;;;;;;;;;;;12.20;86.70;;;;;;6281448;22;20376;-74
2023/07/12 15:18:43;;;;;;;;;;;12.30;86.60;;;;;;6255947;22;19907;-74
2023/07/12 15:21:16;;;;;;;;;;;12.20;86.70;;;;;;6307370;22;19918;-74
2023/07/12 15:23:43;;;;;;;;;;;12.20;86.70;;;;;;6308344;22;19977;-74
2023/07/12 15:26:10;;;;;;;;;;;12.10;86.60;;;;;;6280828;22;20277;-74
2023/07/12 15:28:38;;;;;;;;;;;12.00;86.70;;;;;;6308217;22;19903;-74
2023/07/12 15:31:05;;;;;;;;;;;12.00;86.80;;;;;;6308162;22;19954;-75
2023/07/12 15:33:32;;;;;;;;;;;12.00;87.00;;;;;;6308134;22;20338;-74
2023/07/12 15:36:02;;;;;;;;;;;11.90;87.00;;;;;;6307927;22;19907;-74
2023/07/12 15:38:30;;;;;;;;;;;11.90;87.00;;;;;;6307399;22;19903;-74
2023/07/12 15:40:58;;;;;;;;;;;11.80;87.00;;;;;;6307431;22;19990;-74
2023/07/12 15:43:26;;;;;;;;;;;11.80;87.10;;;;;;6308002;22;20325;-74
2023/07/12 15:45:52;;;;;;;;;;;11.80;87.30;;;;;;6308124;22;19986;-74
2023/07/12 15:48:20;;;;;;;;;;;11.80;87.40;;;;;;6280636;22;20341;-74
2023/07/12 15:50:47;;;;;;;;;;;11.70;87.20;;;;;;6307605;22;19915;-74
2023/07/12 15:53:15;;;;;;;;;;;11.70;87.10;;;;;;6308143;22;19978;-74
2023/07/12 15:55:42;;;;;;;;;;;11.70;86.90;;;;;;6308918;22;19946;-74
2023/07/12 15:58:22;;;;;;;;;;;11.70;87.00;;;;;;6308252;22;20211;-74
2023/07/12 16:00:50;;;;;;;;;;;11.70;87.00;;;;;;6307747;22;19937;-74
2023/07/12 16:03:18;;;;;;;;;;;11.70;87.10;;;;;;6307469;22;19974;-74
2023/07/12 16:05:44;;;;;;;;;;;11.70;87.00;;;;;;6308080;22;19903;-74
2023/07/12 16:08:11;;;;;;;;;;;11.70;86.90;;;;;;6280412;22;19903;-74
2023/07/12 16:10:38;;;;;;;;;;;11.70;87.00;;;;;;6280764;22;19939;-74
2023/07/12 16:13:04;;;;;;;;;;;11.60;86.80;;;;;;6307769;22;19930;-73
2023/07/12 16:15:32;;;;;;;;;;;11.60;86.90;;;;;;6307674;22;19973;-74
2023/07/12 16:17:59;;;;;;;;;;;11.60;86.90;;;;;;6307620;22;19937;-74
2023/07/12 16:20:26;;;;;;;;;;;11.50;86.90;;;;;;6307376;22;19910;-74
2023/07/12 16:22:52;;;;;;;;;;;11.60;86.90;;;;;;6307722;22;19903;-74
2023/07/12 16:25:19;;;;;;;;;;;11.50;86.90;;;;;;6307862;22;19903;-74
2023/07/12 16:27:46;;;;;;;;;;;11.50;86.80;;;;;;6308146;22;19903;-74
2023/07/12 16:30:14;;;;;;;;;;;11.40;86.80;;;;;;6307539;22;19907;-74
2023/07/12 16:32:41;;;;;;;;;;;11.40;86.90;;;;;;6307165;22;19909;-74
2023/07/12 16:35:17;;;;;;;;;;;11.30;86.90;;;;;;6307547;22;19903;-74
2023/07/12 16:37:44;;;;;;;;;;;11.40;87.00;;;;;;6307920;22;19903;-74
2023/07/12 16:40:11;;;;;;;;;;;11.30;87.00;;;;;;6307778;22;19965;-74
2023/07/12 16:42:38;;;;;;;;;;;11.40;87.00;;;;;;6307017;22;19931;-74
2023/07/12 16:45:04;;;;;;;;;;;11.40;86.90;;;;;;6306978;22;19935;-74
2023/07/12 16:47:31;;;;;;;;;;;11.30;86.70;;;;;;6307809;22;19926;-74
2023/07/12 16:49:58;;;;;;;;;;;11.30;86.80;;;;;;6307433;22;20241;-74
2023/07/12 16:52:24;;;;;;;;;;;11.30;86.60;;;;;;6307129;22;19903;-74
2023/07/12 16:54:51;;;;;;;;;;;11.30;86.70;;;;;;6307340;22;19903;-74
2023/07/12 16:57:19;;;;;;;;;;;11.20;86.70;;;;;;6307391;22;20234;-74
2023/07/12 16:59:46;;;;;;;;;;;11.20;86.70;;;;;;6307445;22;20323;-75
2023/07/12 17:02:31;;;;;;;;;;;11.20;86.70;;;;;;6306834;22;19910;-74
2023/07/12 17:04:58;;;;;;;;;;;11.20;86.70;;;;;;6307269;22;20326;-74
2023/07/12 17:07:25;;;;;;;;;;;11.10;86.80;;;;;;6306795;22;19930;-74
2023/07/12 17:09:51;;;;;;;;;;;11.10;86.80;;;;;;6306998;22;19964;-74
2023/07/12 17:12:22;;;;;;;;;;;11.10;86.80;;;;;;6306908;22;19911;-74
2023/07/12 17:14:49;;;;;;;;;;;11.10;86.70;;;;;;6306578;22;19950;-74
2023/07/12 17:17:16;;;;;;;;;;;11.10;86.70;;;;;;6307656;22;19915;-74
2023/07/12 17:19:43;;;;;;;;;;;11.00;86.60;;;;;;6306377;22;19911;-74
2023/07/12 17:22:13;;;;;;;;;;;11.00;86.50;;;;;;6306676;22;19907;-74
2023/07/12 17:24:40;;;;;;;;;;;11.00;86.50;;;;;;6306164;22;19942;-74
2023/07/12 17:27:14;;;;;;;;;;;10.90;86.50;;;;;;6306233;22;19907;-74
2023/07/12 17:29:41;;;;;;;;;;;10.80;86.60;;;;;;6307364;22;19940;-74
2023/07/12 17:32:18;;;;;;;;;;;10.80;86.70;;;;;;6307024;22;19925;-74
2023/07/12 17:34:45;;;;;;;;;;;10.80;86.70;;;;;;6279980;22;19952;-75
2023/07/12 17:37:13;;;;;;;;;;;10.80;86.60;;;;;;6306919;22;19949;-74
2023/07/12 17:39:41;;;;;;;;;;;10.80;86.60;;;;;;6306641;22;19942;-74
2023/07/12 17:42:10;;;;;;;;;;;10.80;86.50;;;;;;6306434;22;19982;-74
2023/07/12 17:44:37;;;;;;;;;;;10.70;86.50;;;;;;6279827;22;19907;-74
2023/07/12 17:47:05;;;;;;;;;;;10.70;86.50;;;;;;6306899;22;19910;-74
2023/07/12 17:49:32;;;;;;;;;;;10.70;86.50;;;;;;6306846;22;20242;-74
2023/07/12 17:51:59;;;;;;;;;;;10.70;86.50;;;;;;6306768;22;19958;-74
2023/07/12 17:54:25;;;;;;;;;;;10.70;86.40;;;;;;6306362;22;19903;-74
2023/07/12 17:56:52;;;;;;;;;;;10.70;86.40;;;;;;6279816;22;19910;-74
2023/07/12 17:59:20;;;;;;;;;;;10.70;86.40;;;;;;6306535;22;19903;-74
2023/07/12 18:01:47;;;;;;;;;;;10.60;85.90;;;;;;6306187;22;20317;-74
2023/07/12 18:04:14;;;;;;;;;;;10.50;86.20;;;;;;6305697;22;19903;-74
2023/07/12 18:06:40;;;;;;;;;;;10.50;86.20;;;;;;6304951;22;19903;-74
2023/07/12 18:09:07;;;;;;;;;;;10.50;86.40;;;;;;6306359;22;19915;-73
2023/07/12 18:11:40;;;;;;;;;;;10.50;86.40;;;;;;6306822;22;19903;-74
2023/07/12 18:14:08;;;;;;;;;;;10.50;86.50;;;;;;6280613;22;19906;-74
2023/07/12 18:16:35;;;;;;;;;;;10.50;86.60;;;;;;6306940;22;19957;-74
2023/07/12 18:19:02;;;;;;;;;;;10.60;86.60;;;;;;6306312;22;19910;-74
2023/07/12 18:21:31;;;;;;;;;;;10.50;86.40;;;;;;6305989;22;19915;-74
2023/07/12 18:23:58;;;;;;;;;;;10.50;86.40;;;;;;6306510;22;19907;-74
2023/07/12 18:26:25;;;;;;;;;;;10.40;86.30;;;;;;6279465;22;19910;-74
2023/07/12 18:28:52;;;;;;;;;;;10.40;86.40;;;;;;6306128;22;19961;-74
2023/07/12 18:31:25;;;;;;;;;;;10.30;86.40;;;;;;6305275;22;19907;-74
2023/07/12 18:33:54;;;;;;;;;;;10.30;86.20;;;;;;6279233;22;20001;-74
2023/07/12 18:36:21;;;;;;;;;;;10.30;86.20;;;;;;6306192;22;19986;-74
2023/07/12 18:38:49;;;;;;;;;;;10.30;86.10;;;;;;6306659;22;19969;-74
2023/07/12 18:41:16;;;;;;;;;;;10.30;86.10;;;;;;6306116;22;19918;-74
2023/07/12 18:43:43;;;;;;;;;;;10.30;85.80;;;;;;6306640;22;19925;-74
2023/07/12 18:46:10;;;;;;;;;;;10.20;85.80;;;;;;6307002;22;19935;-77
2023/07/12 18:48:37;;;;;;;;;;;10.20;86.00;;;;;;6306655;22;19903;-73
2023/07/12 18:51:03;;;;;;;;;;;10.20;86.10;;;;;;6305311;22;19911;-74
2023/07/12 18:53:30;;;;;;;;;;;10.20;86.00;;;;;;6279052;22;19952;-73
2023/07/12 18:55:57;;;;;;;;;;;10.20;86.20;;;;;;6305967;22;19910;-73
2023/07/12 18:58:23;;;;;;;;;;;10.20;86.30;;;;;;6306239;22;19913;-74
2023/07/12 19:00:51;;;;;;;;;;;10.20;86.30;;;;;;6305945;22;19990;-74
2023/07/12 19:03:35;;;;;;;;;;;10.10;86.30;;;;;;6306097;22;19918;-74
2023/07/12 19:06:02;;;;;;;;;;;10.10;86.30;;;;;;6305922;22;20065;-74
2023/07/12 19:08:29;;;;;;;;;;;10.00;86.20;;;;;;6306265;22;19910;-74
2023/07/12 19:10:55;;;;;;;;;;;10.00;86.30;;;;;;6306654;22;19903;-74
2023/07/12 19:13:22;;;;;;;;;;;10.00;86.10;;;;;;6306317;22;19903;-71
2023/07/12 19:15:49;;;;;;;;;;;10.10;86.00;;;;;;6305518;22;19907;-70
2023/07/12 19:18:15;;;;;;;;;;;10.10;85.80;;;;;;6308119;22;19934;-76
2023/07/12 19:20:42;;;;;;;;;;;10.00;85.80;;;;;;6308010;22;20250;-75
2023/07/12 19:23:14;;;;;;;;;;;10.10;85.80;;;;;;6308310;22;19935;-75
2023/07/12 19:25:41;;;;;;;;;;;10.00;85.80;;;;;;6307664;22;19903;-75
2023/07/12 19:28:08;;;;;;;;;;;9.90;86.00;;;;;;6307693;22;19910;-75
2023/07/12 19:30:35;;;;;;;;;;;9.90;85.80;;;;;;6308025;22;19917;-75
2023/07/12 19:33:02;;;;;;;;;;;9.90;85.70;;;;;;6281107;22;20233;-73
2023/07/12 19:35:34;;;;;;;;;;;9.80;85.70;;;;;;6308192;22;19922;-73
2023/07/12 19:38:01;;;;;;;;;;;9.90;85.80;;;;;;6307825;22;19909;-74
2023/07/12 19:40:28;;;;;;;;;;;9.90;85.90;;;;;;6306203;22;19961;-73
2023/07/12 19:42:54;;;;;;;;;;;9.80;85.80;;;;;;6308005;22;19903;-73
2023/07/12 19:45:24;;;;;;;;;;;9.80;86.00;;;;;;6307634;22;19907;-73
2023/07/12 19:47:54;;;;;;;;;;;9.80;86.10;;;;;;6307609;22;19966;-73
2023/07/12 19:50:21;;;;;;;;;;;9.70;85.90;;;;;;6307389;22;19919;-73
2023/07/12 19:52:48;;;;;;;;;;;9.70;85.90;;;;;;6307793;22;19903;-73
2023/07/12 19:55:25;;;;;;;;;;;9.80;85.90;;;;;;6307987;22;19941;-73
2023/07/12 19:57:53;;;;;;;;;;;9.70;85.90;;;;;;6307657;22;19922;-73
2023/07/12 20:00:24;;;;;;;;;;;9.70;86.00;;;;;;6307136;22;19990;-74
2023/07/12 20:02:51;;;;;;;;;;;9.70;86.10;;;;;;6307117;22;20106;-73
2023/07/12 20:05:17;;;;;;;;;;;9.70;86.10;;;;;;6307735;22;20325;-74
2023/07/12 20:07:44;;;;;;;;;;;9.70;85.90;;;;;;6307542;22;19903;-74
2023/07/12 20:10:11;;;;;;;;;;;9.60;85.80;;;;;;6306741;22;19903;-73
2023/07/12 20:12:37;;;;;;;;;;;9.60;85.90;;;;;;6307916;22;19934;-73
2023/07/12 20:15:05;;;;;;;;;;;9.70;86.00;;;;;;6307820;22;19934;-72
2023/07/12 20:17:32;;;;;;;;;;;9.60;86.00;;;;;;6280671;22;19937;-72
2023/07/12 20:19:58;;;;;;;;;;;9.60;86.10;;;;;;6307844;22;20238;-73
2023/07/12 20:22:25;;;;;;;;;;;9.60;86.00;;;;;;6307706;22;19903;-73
2023/07/12 20:24:51;;;;;;;;;;;9.60;86.00;;;;;;6307160;22;20013;-72
2023/07/12 20:27:20;;;;;;;;;;;9.50;86.10;;;;;;6306680;22;19914;-73
2023/07/12 20:29:48;;;;;;;;;;;9.50;86.10;;;;;;6307331;22;19914;-73
2023/07/12 20:32:15;;;;;;;;;;;9.60;86.10;;;;;;6307375;22;20238;-73
2023/07/12 20:34:42;;;;;;;;;;;9.50;86.10;;;;;;6307667;22;20126;-73
2023/07/12 20:37:08;;;;;;;;;;;9.50;86.00;;;;;;6307672;22;19914;-72
2023/07/12 20:39:38;;;;;;;;;;;9.50;86.10;;;;;;6305617;22;19907;-72
2023/07/12 20:42:05;;;;;;;;;;;9.50;86.00;;;;;;6306139;22;19970;-72
2023/07/12 20:44:33;;;;;;;;;;;9.50;86.00;;;;;;6308100;22;20226;-73
2023/07/12 20:47:02;;;;;;;;;;;9.40;86.00;;;;;;6306615;22;20273;-73
2023/07/12 20:49:30;;;;;;;;;;;9.40;85.80;;;;;;6307297;22;19922;-73
2023/07/12 20:52:00;;;;;;;;;;;9.40;85.80;;;;;;6306531;22;19910;-73
2023/07/12 20:54:26;;;;;;;;;;;9.40;86.00;;;;;;6306928;22;19929;-72
2023/07/12 20:56:53;;;;;;;;;;;9.40;85.70;;;;;;6306544;22;19903;-73
2023/07/12 20:59:20;;;;;;;;;;;9.30;85.90;;;;;;6279731;22;19903;-74
2023/07/12 21:01:46;;;;;;;;;;;9.30;86.00;;;;;;6307227;22;19911;-72
2023/07/12 21:04:13;;;;;;;;;;;9.30;86.10;;;;;;6306619;22;19902;-73
2023/07/12 21:06:40;;;;;;;;;;;9.40;86.30;;;;;;6306893;22;20210;-73
2023/07/12 21:09:06;;;;;;;;;;;9.30;86.20;;;;;;6307126;22;20294;-73
2023/07/12 21:11:33;;;;;;;;;;;9.30;86.10;;;;;;6307625;22;19977;-73
2023/07/12 21:13:59;;;;;;;;;;;9.30;86.20;;;;;;6279219;22;19909;-72
2023/07/12 21:16:26;;;;;;;;;;;9.20;86.20;;;;;;6306445;22;19907;-73
2023/07/12 21:18:53;;;;;;;;;;;9.20;86.20;;;;;;6278803;22;19918;-73
2023/07/12 21:21:20;;;;;;;;;;;9.20;86.20;;;;;;6306444;22;19910;-72
2023/07/12 21:23:47;;;;;;;;;;;9.30;85.90;;;;;;6305789;22;19907;-72
2023/07/12 21:26:13;;;;;;;;;;;9.30;86.00;;;;;;6305430;22;19982;-73
2023/07/12 21:28:40;;;;;;;;;;;9.20;85.90;;;;;;6307023;22;20306;-73
2023/07/12 21:31:07;;;;;;;;;;;9.20;86.10;;;;;;6307373;22;19911;-72
2023/07/12 21:33:34;;;;;;;;;;;9.20;85.90;;;;;;6279740;22;19907;-72
2023/07/12 21:36:03;;;;;;;;;;;9.20;86.00;;;;;;6306250;22;19975;-72
2023/07/12 21:38:29;;;;;;;;;;;9.20;86.10;;;;;;6306330;22;19907;-72
2023/07/12 21:41:00;;;;;;;;;;;9.20;86.20;;;;;;6307009;22;19915;-72
